Weather observations for the past three days for
Hereford Municipal Airport
Imperial (Metric)
Date Time (cdt) Wind (mph) Vis. (mi.) Weather Sky Cond. Temperature (ºF) Relative Humidity Wind Chill (°F) Heat Index (°F) Pressure Precipitation (in)
Air Dwpt 6 hour altimeter (in) sea level (mb) 1 hr 3 hr 6 hr
Max. Min.
09 00:15 E 8 10.00 Fair CLR 61.3 32.9 34% 29.94 0.0
08 23:55 E 9 10.00 Fair CLR 62.8 32.9 33% 29.94 0.0
08 23:35 E 9 10.00 Fair CLR 62.2 32.4 33% 29.95 0.0
08 23:15 E 9 10.00 Fair CLR 60.4 32 34% 29.95 0.0
08 22:55 SE 8 10.00 Fair CLR 61.3 32 33% 29.95 0.0
08 22:35 E 9 10.00 Fair CLR 63.9 32 30% 29.95 0.0
08 22:15 E 8 10.00 Fair CLR 63.7 32 31% 29.94 0.0
08 21:55 E 8 10.00 Fair CLR 65.3 32.2 29% 29.94 0.0
08 21:35 E 7 10.00 Fair CLR 67.5 32.9 28% 29.93 0.0
08 21:15 E 8 10.00 Fair CLR 68.7 32.5 26% 29.92 0.0
08 20:55 E 8 10.00 Fair CLR 71.8 33.4 24% 29.91 0.0
08 20:35 E 9 10.00 Fair CLR 75.2 32.2 21% 76 29.9 0.0
08 20:15 E 8 10.00 Fair CLR 78.6 32 18% 78 29.9 0.0
08 19:55 NE 10 10.00 Fair CLR 80.6 31.6 17% 79 29.9 0.0
08 19:35 NE 14 10.00 Fair CLR 82 30 15% 80 29.89 0.0
08 19:15 NE 10 10.00 Fair CLR 83.1 30.4 15% 80 29.89 0.0
08 18:55 NE 13 10.00 Fair CLR 83.7 30.4 87.1 82 14% 81 29.88 0.0
08 18:35 NE 15 G 21 10.00 Fair CLR 84.2 30.6 14% 81 29.88 0.0
08 17:55 NE 10 G 24 10.00 Fair CLR 85.8 30.4 13% 82 29.88 0.0
08 17:35 NE 20 G 24 10.00 Fair CLR 85.3 30.2 14% 82 29.87 0.0
08 17:15 NE 17 G 26 10.00 Fair CLR 86.2 30.2 13% 83 29.87 0.0
08 16:55 N 14 G 17 10.00 Fair CLR 86.4 29.5 13% 83 29.87 0.0
08 16:35 N 17 G 22 10.00 Fair CLR 86.9 29.1 12% 83 29.87 0.0
08 16:15 N 15 G 21 10.00 Fair CLR 86.5 28.9 12% 83 29.87 0.0
08 15:55 NE 8 G 22 10.00 Fair CLR 86.9 27.9 12% 83 29.88 0.0
08 15:35 E 3 G 20 10.00 Fair CLR 86.7 28.8 12% 83 29.89 0.0
08 15:15 NE 7 G 12 10.00 Fair CLR 86.4 29.3 13% 83 29.89 0.0
08 14:55 NE 9 G 21 10.00 Fair CLR 86.4 30.4 13% 83 29.89 0.0
08 14:35 N 14 G 21 10.00 Fair CLR 86.2 29.1 13% 83 29.89 0.0
08 14:15 N 16 G 22 10.00 Fair CLR 86 29.7 13% 83 29.88 0.0
08 13:55 NE 16 G 22 10.00 Fair CLR 85.6 29.1 13% 82 29.89 0.0
08 13:35 N 9 G 16 10.00 Fair CLR 84.4 29.1 13% 81 29.9 0.0
08 13:15 NE 6 G 16 10.00 Fair CLR 83.5 30.2 14% 81 29.91 0.0
08 12:55 NW 5 10.00 Fair CLR 82 33.1 82 51.1 17% 80 29.91 0.0
08 12:35 W 8 10.00 Fair CLR 80.6 34 19% 79 29.92 0.0
08 12:15 N 7 10.00 Fair CLR 78.6 34.5 20% 78 29.93 0.0
08 11:55 W 5 10.00 Fair CLR 77.4 36.3 23% 77 29.93 0.0
08 11:35 NW 6 10.00 Fair CLR 75.9 41.7 29% 77 29.94 0.0
08 11:15 NW 8 10.00 Fair CLR 74.5 41.9 31% 29.94 0.0
08 10:55 NW 7 10.00 Fair CLR 73 41.9 33% 29.94 0.0
08 10:35 W 10 10.00 Fair CLR 70.7 43.5 38% 29.95 0.0
08 10:15 W 12 10.00 Fair CLR 68.9 44.6 42% 29.94 0.0
08 09:55 W 12 10.00 Fair CLR 68.4 46.2 45% 29.95 0.0
08 09:35 SW 15 10.00 Fair CLR 64.8 47.3 53% 29.95 0.0
08 09:15 W 14 10.00 Fair CLR 64.9 47.5 53% 29.95 0.0
08 08:55 W 14 G 17 10.00 Fair CLR 63.5 47.8 57% 29.96 0.0
08 08:35 SW 10 10.00 Fair CLR 61.3 47.8 61% 29.95 0.0
08 08:15 SW 14 10.00 Fair CLR 59.2 46.8 64% 29.95 0.0
08 07:55 SW 7 10.00 Fair CLR 56.7 46 68% 29.95 0.0
08 07:35 SW 7 10.00 Fair CLR 53.8 45.1 73% 29.95 0.0
08 07:15 SW 8 10.00 Fair CLR 52 44.6 76% 29.93 0.0
08 06:55 S 8 10.00 Fair CLR 53.8 44.2 60.1 53.8 70% 29.94 0.0
08 06:35 SW 10 10.00 Fair CLR 55 45.5 70% 29.94 0.0
08 06:15 SW 8 10.00 Fair CLR 55.2 45.1 69% 29.93 0.0
08 05:55 SW 10 10.00 Fair CLR 55.8 45 67% 29.94 0.0
08 05:35 SW 13 10.00 Fair CLR 55 44.2 67% 29.94 0.0
08 05:15 SW 9 10.00 Fair CLR 55.9 44.6 66% 29.94 0.0
08 04:55 SW 13 10.00 Fair CLR 56.5 44.6 65% 29.94 0.0
08 04:35 SW 14 10.00 Fair CLR 57.2 44.6 63% 29.94 0.0
08 04:15 SW 14 10.00 Fair CLR 57.2 43.9 61% 29.95 0.0
08 03:55 SW 12 10.00 Fair CLR 56.7 43.5 62% 29.95 0.0
08 03:35 SW 9 10.00 Fair CLR 56.5 42.3 59% 29.95 0.0
08 03:15 SW 9 10.00 Fair CLR 56.1 41.7 59% 29.95 0.0
08 02:55 SW 8 10.00 Fair CLR 56.3 40.5 56% 29.96 0.0
08 02:35 SW 8 10.00 Fair CLR 57.2 39.7 52% 29.96 0.0
08 02:15 SW 9 10.00 Fair CLR 58.5 39.4 49% 29.97 0.0
08 01:55 SW 9 10.00 Fair CLR 57 38.3 50% 29.97 0.0
08 01:35 SW 7 10.00 Fair CLR 58.1 37.6 47% 29.97 0.0
08 01:15 SW 7 10.00 Fair CLR 59.2 37.2 44% 29.97 0.0
08 00:55 SW 8 10.00 Fair CLR 60.1 36.9 77.9 59.5 42% 29.98 0.0
08 00:15 S 7 10.00 Fair CLR 59.9 35.1 40% 29.98 0.0
07 23:55 SW 8 10.00 Fair CLR 61 34 36% 29.98 0.0
07 23:35 S 8 10.00 Fair CLR 62.8 33.8 34% 29.98 0.0
07 23:15 S 10 10.00 Fair CLR 64 33.8 32% 29.98 0.0
07 22:55 S 8 10.00 Fair CLR 62.4 33.3 34% 29.98 0.0
07 22:35 S 7 10.00 Fair CLR 61.5 32.2 33% 29.98 0.0
07 22:15 S 5 10.00 Fair CLR 63.1 32 31% 29.98 0.0
07 21:55 S 6 10.00 Fair CLR 63.7 32 31% 29.97 0.0
07 21:35 S 7 10.00 Fair CLR 64.4 31.8 30% 29.96 0.0
07 21:15 S 7 10.00 Fair CLR 66.6 30.9 26% 29.95 0.0
07 20:55 S 6 10.00 Fair CLR 69.6 30 23% 29.95 0.0
07 20:35 SW 7 10.00 Fair CLR 74.1 30.2 20% 29.94 0.0
07 20:15 SW 9 10.00 Fair CLR 75.6 30 19% 76 29.94 0.0
07 19:55 SW 14 G 22 10.00 Fair CLR 76.5 29.3 18% 76 29.94 0.0
07 19:35 SW 14 10.00 Fair CLR 77 29.1 17% 77 29.94 0.0
07 19:15 SW 12 G 18 10.00 Fair CLR 77.4 27.9 16% 77 29.95 0.0
07 18:55 SW 15 G 22 10.00 Fair CLR 77.9 27.7 78.3 65.7 16% 77 29.94 0.0
07 18:35 SW 16 G 22 10.00 Fair CLR 78.1 27.3 15% 77 29.95 0.0
07 18:15 SW 17 G 22 10.00 Fair CLR 78.1 27.3 15% 77 29.95 0.0
07 17:55 W 9 G 20 10.00 Fair CLR 78.1 29.1 17% 77 29.95 0.0
07 17:35 NW 9 G 17 10.00 Fair CLR 77.9 29.3 17% 77 29.96 0.0
07 17:15 W 8 G 20 10.00 Fair CLR 77.9 28.6 16% 77 29.97 0.0
07 16:55 W 10 G 21 10.00 Fair CLR 76.8 30.7 18% 77 29.98 0.0
07 16:35 W 9 G 21 10.00 Fair CLR 77.2 29.8 18% 77 29.99 0.0
07 16:15 SW 17 G 21 10.00 Fair CLR 75.7 31.1 19% 76 30 0.0
07 15:55 W 16 G 22 10.00 Fair CLR 75.2 31.8 20% 76 30.01 0.0
07 15:35 SW 8 G 23 10.00 Fair CLR 73.9 32.5 22% 30.03 0.0
07 14:55 W 6 G 20 10.00 Fair CLR 72.9 32 22% 30.05 0.0
07 14:35 SW 12 G 17 10.00 Fair CLR 72.7 32.7 23% 30.06 0.0
07 14:15 W 12 G 16 10.00 Fair CLR 70.5 36.3 29% 30.07 0.0
07 13:55 SW 5 10.00 Fair CLR 69.4 35.8 29% 30.09 0.0
07 13:35 SW 10 10.00 Fair CLR 68.5 37.8 32% 30.1 0.0
07 13:15 W 9 10.00 Fair CLR 67.1 37.4 34% 30.12 0.0
07 12:55 W 9 G 16 10.00 Fair CLR 65.8 38.3 65.8 35.6 36% 30.13 0.0
07 12:35 SW 12 G 17 10.00 Fair CLR 64 38.7 39% 30.13 0.0
07 12:15 SW 6 G 17 10.00 Fair CLR 63 38.7 41% 30.14 0.0
07 11:55 W 13 10.00 Fair CLR 61.7 39.7 45% 30.16 0.0
07 11:35 W 10 G 18 10.00 Fair CLR 59.7 39.4 47% 30.16 0.0
07 11:15 SW 9 G 17 10.00 Fair CLR 58.1 39.6 50% 30.17 0.0
07 10:55 SW 9 G 16 10.00 Fair CLR 56.5 39.7 54% 30.17 0.0
07 10:35 SW 12 G 16 10.00 Fair CLR 54.5 40.5 59% 30.18 0.0
07 10:15 W 7 10.00 Fair CLR 51.6 41.4 68% 30.19 0.0
07 09:55 W 6 10.00 Fair CLR 50 42.6 76% 48 30.19 0.0
07 09:35 W 6 10.00 Partly Cloudy SCT005 47.8 42.8 83% 46 30.19 0.0
07 09:15 NW 6 10.00 Partly Cloudy SCT005 45.7 42.8 90% 43 30.2 0.0
07 08:55 W 7 10.00 Mostly Cloudy BKN003 44.6 43.9 97% 41 30.2 0.0
07 08:35 NW 8 10.00 Overcast OVC003 43.9 43.7 99% 40 30.2 0.0
07 08:15 NW 9 4.00 Fog/Mist OVC003 43.2 43.2 100% 38 30.2 0.0
07 07:55 NW 7 10.00 Overcast OVC003 42.8 42.8 100% 39 30.2 0.0
07 07:35 NW 5 10.00 Mostly Cloudy BKN003 37.4 37 99% 34 30.19 0.0
07 07:15 NW 5 10.00 Fair CLR 35.8 34.5 95% 32 30.19 0.0
07 06:55 NW 5 10.00 Fair CLR 35.6 33.8 46.9 35.2 93% 32 30.19 0.0
07 06:35 NW 5 10.00 Fair CLR 36.1 34.2 93% 33 30.18 0.0
07 06:15 NW 5 10.00 Fair CLR 37.4 35.2 92% 34 30.19 0.0
07 05:55 NW 5 10.00 Fair CLR 37.4 35.1 91% 34 30.19 0.0
07 05:35 N 7 10.00 Fair CLR 36.9 34.5 91% 32 30.19 0.0
07 05:15 NW 5 10.00 Fair CLR 38.8 36.3 91% 36 30.19 0.0
07 04:55 NW 3 10.00 Fair CLR 39 36.1 89% 30.19 0.0
07 04:35 NW 5 10.00 Fair CLR 39 35.8 88% 36 30.19 0.0
07 04:15 N 7 10.00 Fair CLR 40.5 36.9 87% 36 30.19 0.0
07 03:55 N 8 10.00 Fair CLR 41.2 36.7 84% 37 30.18 0.0
07 03:35 NE 3 10.00 Partly Cloudy SCT120 43.3 38.5 83% 30.17 0.0
07 03:15 NE 3 10.00 Partly Cloudy SCT120 44.4 39.2 82% 30.17 0.0
07 02:55 E 5 10.00 Partly Cloudy SCT110 45 39.6 81% 43 30.17 0.0
07 02:35 E 8 10.00 Light Drizzle SCT060 SCT100 45.5 39.2 79% 42 30.17 0.0
07 02:15 N 8 10.00 Partly Cloudy SCT080 SCT110 45.5 39.2 79% 42 30.21 0.0
07 01:55 NE 3 10.00 Partly Cloudy SCT045 SCT080 SCT110 45.5 39 78% 30.21 0.0
07 01:35 NE 8 10.00 Mostly Cloudy BKN045 BKN110 45.9 38.7 76% 42 30.21 0.0
07 01:15 N 8 10.00 Overcast OVC047 46.8 39.7 77% 43 30.22 0.0
07 00:55 NE 8 10.00 Light Rain SCT026 SCT035 BKN049 46.4 38.8 64.6 46.4 75% 43 30.2 0.0
07 00:35 NE 9 10.00 Partly Cloudy SCT080 47.3 37.4 69% 43 30.19 0.0
06 23:55 NE 14 10.00 Fair CLR 47.3 36.9 67% 42 30.18 0.0
06 23:35 NE 14 10.00 Partly Cloudy SCT046 47.3 36.9 67% 42 30.17 0.0
06 23:15 NE 14 10.00 Fair CLR 47.7 37 67% 42 30.17 0.0
06 22:35 NE 14 10.00 Partly Cloudy SCT050 48.7 38.8 69% 44 30.15 0.0
06 22:15 NE 17 G 26 10.00 Partly Cloudy SCT050 49.6 39.6 68% 44 30.14 0.0
06 21:55 N 15 G 21 10.00 Light Drizzle SCT026 SCT032 BKN048 51.1 41.7 70% 30.14 0.0
06 21:35 NE 18 G 24 10.00 Light Rain BKN048 54.1 40.1 59% 30.1 0.0
06 21:15 NE 16 10.00 Partly Cloudy SCT050 SCT080 58.1 36.9 45% 30.1 0.0
06 20:55 NE 12 10.00 Fair CLR 58.5 36.7 44% 30.07 0.0
06 20:35 E 14 10.00 Mostly Cloudy BKN110 58.5 36.9 45% 30.04 0.0
06 20:15 E 17 G 26 10.00 Mostly Cloudy BKN110 59 36.9 44% 30.02 0.0
06 19:55 E 21 G 25 10.00 Partly Cloudy and Breezy SCT090 SCT120 59.9 37 43% 29.99 0.0
06 19:35 E 22 G 25 10.00 Partly Cloudy and Breezy SCT095 61 37 41% 29.98 0.0
06 19:15 E 21 G 29 10.00 Partly Cloudy and Breezy SCT095 61.7 36.9 40% 29.97 0.0
06 18:55 E 23 G 29 10.00 Fair and Breezy CLR 64.6 36.1 72.1 61.2 35% 29.96 0.0
06 18:35 E 23 G 30 10.00 Partly Cloudy and Breezy SCT045 SCT060 65.8 36.1 33% 29.95 0.0
06 18:15 E 22 G 28 10.00 Light Rain and Breezy SCT039 SCT045 BKN065 66 37.6 35% 29.95 0.0
06 17:55 E 23 G 29 10.00 Partly Cloudy and Breezy SCT065 67.6 36 31% 29.95 0.0
06 17:35 E 22 G 29 10.00 Mostly Cloudy and Breezy BKN075 66.6 36.3 33% 29.94 0.0
06 17:15 E 25 G 30 10.00 Partly Cloudy and Breezy SCT065 SCT080 68.2 36 31% 29.95 0.0
06 16:55 E 18 G 28 10.00 Mostly Cloudy SCT065 BKN075 BKN100 68.4 35.2 30% 29.94 0.0
06 16:35 E 12 G 18 10.00 Partly Cloudy SCT080 70.7 34.7 27% 29.95 0.0
06 16:15 SE 8 10.00 Partly Cloudy SCT080 70.9 34.9 27% 29.96 0.0
06 15:55 SE 8 10.00 Partly Cloudy SCT070 71.1 34.9 27% 29.96 0.0
06 15:35 SE 6 10.00 Partly Cloudy SCT070 69.3 35.1 28% 29.97 0.0
06 15:15 E 7 10.00 Partly Cloudy SCT070 68.4 34.7 29% 29.97 0.0
06 14:55 S 7 10.00 Partly Cloudy SCT060 67.6 34.9 30% 29.98 0.0
06 14:35 E 7 10.00 Partly Cloudy SCT060 66.9 34.7 30% 29.98 0.0
06 14:15 E 5 10.00 Partly Cloudy SCT060 67.1 34.9 30% 29.99 0.0
06 13:55 SE 9 10.00 Partly Cloudy SCT060 63.7 35.1 35% 30 0.0
06 13:35 Calm 10.00 Fair CLR 64.9 35.6 34% 30.02 0.0
06 13:15 E 3 10.00 Fair CLR 63.1 36.1 37% 30.02 0.0
06 12:55 S 6 10.00 Fair CLR 61.9 36.5 62.2 45.5 39% 30.03 0.0
06 12:35 Calm 10.00 Fair CLR 60.4 37 42% 30.04 0.0
06 12:15 E 5 10.00 Fair CLR 58.8 37.2 45% 30.04 0.0
06 11:55 S 5 10.00 Fair CLR 57.6 37.8 48% 30.04 0.0
06 11:35 E 6 10.00 Partly Cloudy SCT026 56.1 39 53% 30.04 0.0
06 11:15 Calm 10.00 Partly Cloudy SCT026 54.3 38.8 56% 30.04 0.0
06 10:55 SE 3 10.00 Partly Cloudy SCT022 53.6 38.8 58% 30.04 0.0
06 10:35 S 8 10.00 Partly Cloudy SCT022 52.2 38.8 61% 30.03 0.0
06 10:15 SE 6 10.00 Partly Cloudy SCT020 51.4 38.5 61% 30.03 0.0
06 09:55 E 5 10.00 Overcast OVC018 49.5 38.8 67% 48 30.03 0.0
06 09:35 SE 7 10.00 Overcast OVC014 47.5 38.7 72% 45 30.02 0.0
06 09:15 SE 6 G 10 10.00 Overcast OVC012 45.9 39.2 78% 43 30.02 0.0
06 08:55 SE 13 10.00 Overcast OVC010 45.7 39.4 79% 40 30.02 0.0
06 08:35 SE 12 10.00 Overcast OVC010 45.7 39.9 80% 41 30.01 0.0
06 08:15 E 13 10.00 Overcast OVC012 45.5 39.4 79% 40 30.01 0.0
06 07:55 E 10 10.00 Overcast OVC012 46 39.7 79% 42 30.02 0.0
06 07:35 SE 10 10.00 Overcast OVC012 45.9 39.7 79% 41 30.02 0.0
06 07:15 E 7 10.00 Overcast OVC014 46 39.6 78% 43 30.02 0.0
06 06:55 SE 10 10.00 Overcast OVC014 45.9 39.6 48.6 42.3 79% 41 30 0.0
06 06:35 SE 13 10.00 Overcast OVC014 45.9 39.4 78% 41 29.99 0.0
06 06:15 SE 10 10.00 Overcast OVC014 45.9 39.2 78% 41 29.99 0.0
06 05:55 E 9 10.00 Overcast OVC014 45.7 39.2 78% 42 29.99 0.0
06 05:35 E 6 10.00 Overcast OVC014 45.5 39.2 79% 43 30 0.0
06 05:15 E 6 10.00 Overcast OVC014 45 39 80% 42 29.99 0.0
06 04:55 E 7 10.00 Overcast OVC014 44.6 38.5 79% 41 29.98 0.0
06 04:35 E 8 10.00 Overcast OVC014 44.1 38.5 81% 40 29.97 0.0
06 04:15 E 10 10.00 Overcast OVC014 43.7 38.5 82% 39 29.96 0.0
06 03:55 E 8 10.00 Mostly Cloudy SCT012 BKN019 42.8 37.8 82% 39 29.95 0.0
06 03:35 E 8 10.00 Partly Cloudy SCT019 42.4 37.6 83% 38 29.95 0.0
06 03:15 E 8 10.00 Fair CLR 42.3 37 82% 38 29.95 0.0
06 02:55 E 8 10.00 Fair CLR 43.2 37.4 80% 39 29.94 0.0
06 02:35 E 10 10.00 Fair CLR 43.9 37.6 79% 39 29.93 0.0
06 02:15 E 10 10.00 Fair CLR 44.2 37.4 77% 39 29.93 0.0
06 01:55 NE 10 10.00 Fair CLR 45 37.4 75% 40 29.94 0.0
06 01:35 NE 10 10.00 Fair CLR 45.9 37.2 72% 41 29.96 0.0
06 01:15 NE 10 10.00 Fair CLR 47.5 37 67% 43 29.93 0.0
06 00:55 E 10 10.00 Fair CLR 48.6 37.4 67.8 48.6 65% 45 29.92 0.0
06 00:35 E 14 10.00 Fair CLR 49.3 37.4 64% 45 29.89 0.0
Date Time (cdt) Wind (mph) Vis. (mi.) Weather Sky Cond. Air Dwpt Max. Min. Relative Humidity Wind Chill (°F) Heat Index (°F) altimeter (in) sea level (mb) 1 hr 3 hr 6 hr
6 hour
Temperature (ºF) Pressure Precipitation (in)